Time;durP1;ratioP1;P1;durP2;ratioP2;P2;SDS_P1;SDS_P2;PMS_P1;PMS_P2;Temp;Humidity;BMP_temperature;BMP_pressure;BME280_temperature;BME280_humidity;BME280_pressure;Samples;Min_cycle;Max_cycle;Signal;HPM_P1;HPM_P2
2023/12/29 00:00:30;;;;;;;23.38;17.80;;;;;;;;;;10292576;28;20072;-52
2023/12/29 00:05:28;;;;;;;25.05;18.60;;;;;;;;;;10288466;28;20069;-51
2023/12/29 00:10:28;;;;;;;24.88;17.55;;;;;;;;;;10292556;28;20072;-53
2023/12/29 00:15:26;;;;;;;21.92;16.95;;;;;;;;;;10291849;28;20064;-53
2023/12/29 00:20:25;;;;;;;20.35;16.50;;;;;;;;;;10292133;28;20477;-53
2023/12/29 00:25:39;;;;;;;21.20;16.95;;;;;;;;;;10290580;28;20080;-54
2023/12/29 00:30:39;;;;;;;19.15;15.13;;;;;;;;;;10291887;28;20075;-53
2023/12/29 00:35:55;;;;;;;19.08;16.58;;;;;;;;;;10292016;28;20056;-54
2023/12/29 00:40:56;;;;;;;26.67;19.00;;;;;;;;;;10289714;28;20041;-52
2023/12/29 00:45:54;;;;;;;24.48;18.77;;;;;;;;;;10290933;28;20075;-51
2023/12/29 00:50:53;;;;;;;22.63;17.98;;;;;;;;;;10291811;28;20072;-53
2023/12/29 00:55:51;;;;;;;21.58;17.45;;;;;;;;;;10288956;28;20467;-52
2023/12/29 01:00:51;;;;;;;21.98;17.40;;;;;;;;;;10300741;28;20087;-53
2023/12/29 01:05:49;;;;;;;24.00;18.52;;;;;;;;;;10288431;28;20107;-53
2023/12/29 01:10:47;;;;;;;25.10;18.27;;;;;;;;;;10287996;28;20080;-53
2023/12/29 01:15:46;;;;;;;24.38;17.65;;;;;;;;;;10289257;28;20075;-50
2023/12/29 01:20:45;;;;;;;25.40;18.30;;;;;;;;;;10288882;28;20053;-53
2023/12/29 01:25:43;;;;;;;22.65;18.20;;;;;;;;;;10290219;28;20076;-53
2023/12/29 01:30:42;;;;;;;26.75;17.75;;;;;;;;;;10289516;28;20453;-52
2023/12/29 01:35:40;;;;;;;23.33;18.65;;;;;;;;;;10285923;28;20614;-54
2023/12/29 01:40:47;;;;;;;26.17;20.27;;;;;;;;;;10290780;28;20080;-52
2023/12/29 01:45:45;;;;;;;26.95;19.35;;;;;;;;;;10289449;28;20080;-52
2023/12/29 01:50:55;;;;;;;23.85;18.75;;;;;;;;;;10285955;28;20064;-52
2023/12/29 01:55:54;;;;;;;25.80;19.55;;;;;;;;;;10284866;28;20072;-52
2023/12/29 02:00:53;;;;;;;25.45;18.25;;;;;;;;;;10284592;28;20076;-53
2023/12/29 02:05:51;;;;;;;27.05;21.15;;;;;;;;;;10283278;28;20075;-52
2023/12/29 02:10:49;;;;;;;24.30;19.02;;;;;;;;;;10287974;28;20068;-52
2023/12/29 02:15:51;;;;;;;26.00;20.13;;;;;;;;;;10286833;28;20068;-52
2023/12/29 02:20:49;;;;;;;29.25;21.50;;;;;;;;;;10288076;28;20507;-52
2023/12/29 02:25:49;;;;;;;33.17;26.52;;;;;;;;;;10287000;28;20081;-52
2023/12/29 02:30:50;;;;;;;37.38;29.42;;;;;;;;;;10287805;28;20075;-52
2023/12/29 02:35:50;;;;;;;36.38;30.33;;;;;;;;;;10289077;28;20511;-51
2023/12/29 02:40:49;;;;;;;34.83;27.25;;;;;;;;;;10280313;28;20041;-51
2023/12/29 02:45:47;;;;;;;36.47;29.92;;;;;;;;;;10284606;28;20478;-53
2023/12/29 02:50:46;;;;;;;36.42;31.25;;;;;;;;;;10287021;28;20080;-51
2023/12/29 02:55:44;;;;;;;35.58;31.20;;;;;;;;;;10284562;28;20506;-54
2023/12/29 03:00:44;;;;;;;39.28;27.05;;;;;;;;;;10287185;28;20041;-53
2023/12/29 03:05:42;;;;;;;28.48;23.90;;;;;;;;;;10283028;28;20076;-53
2023/12/29 03:10:40;;;;;;;27.83;22.40;;;;;;;;;;10286097;28;20048;-54
2023/12/29 03:15:39;;;;;;;25.50;22.27;;;;;;;;;;10286127;28;20068;-53
2023/12/29 03:20:38;;;;;;;24.60;20.80;;;;;;;;;;10286319;28;20069;-52
2023/12/29 03:25:36;;;;;;;24.73;20.80;;;;;;;;;;10284717;28;20084;-54
2023/12/29 03:30:35;;;;;;;28.52;20.55;;;;;;;;;;10286200;28;20454;-53
2023/12/29 03:35:33;;;;;;;23.20;18.52;;;;;;;;;;10285678;28;20091;-53
2023/12/29 03:40:33;;;;;;;26.27;20.33;;;;;;;;;;10285647;28;20072;-53
2023/12/29 03:45:31;;;;;;;28.45;20.30;;;;;;;;;;10281241;28;20079;-52
2023/12/29 03:50:29;;;;;;;23.77;19.35;;;;;;;;;;10285650;28;20060;-54
2023/12/29 03:55:27;;;;;;;24.23;18.85;;;;;;;;;;10288889;28;20052;-54
2023/12/29 04:00:27;;;;;;;23.15;19.38;;;;;;;;;;10292272;28;20070;-54
2023/12/29 04:05:25;;;;;;;17.65;15.18;;;;;;;;;;10288805;28;20076;-52
2023/12/29 04:10:24;;;;;;;20.35;14.75;;;;;;;;;;10292857;28;20463;-53
2023/12/29 04:15:22;;;;;;;21.48;13.35;;;;;;;;;;10293058;28;20068;-53
2023/12/29 04:20:21;;;;;;;16.95;12.93;;;;;;;;;;10292316;28;20088;-53
2023/12/29 04:25:20;;;;;;;16.95;13.25;;;;;;;;;;10289291;28;20088;-53
2023/12/29 04:30:18;;;;;;;16.38;12.90;;;;;;;;;;10293047;28;20506;-51
2023/12/29 04:35:16;;;;;;;17.80;12.10;;;;;;;;;;10291392;28;20080;-50
2023/12/29 04:40:16;;;;;;;18.75;12.60;;;;;;;;;;10292784;28;20087;-52
2023/12/29 04:45:14;;;;;;;15.48;11.80;;;;;;;;;;10292738;28;20085;-53
2023/12/29 04:50:12;;;;;;;14.23;12.15;;;;;;;;;;10290932;28;20509;-51
2023/12/29 04:55:12;;;;;;;18.70;12.85;;;;;;;;;;10288893;28;20073;-53
2023/12/29 05:00:13;;;;;;;16.27;12.07;;;;;;;;;;10290983;28;20076;-50
2023/12/29 05:05:12;;;;;;;17.17;13.45;;;;;;;;;;10289426;28;20091;-51
2023/12/29 05:10:10;;;;;;;20.85;13.88;;;;;;;;;;10289837;28;20092;-52
2023/12/29 05:15:08;;;;;;;17.95;12.68;;;;;;;;;;10288483;28;20072;-53
2023/12/29 05:20:09;;;;;;;15.40;11.95;;;;;;;;;;10289954;28;20061;-53
2023/12/29 05:25:08;;;;;;;15.50;11.88;;;;;;;;;;10288596;28;20072;-54
2023/12/29 05:30:07;;;;;;;14.48;12.20;;;;;;;;;;10289696;28;20088;-51
2023/12/29 05:35:06;;;;;;;15.20;11.60;;;;;;;;;;10289151;28;20096;-50
2023/12/29 05:40:06;;;;;;;16.20;12.70;;;;;;;;;;10291972;28;20084;-53
2023/12/29 05:45:05;;;;;;;15.73;12.82;;;;;;;;;;10288814;28;20079;-53
2023/12/29 05:50:03;;;;;;;18.10;13.30;;;;;;;;;;10288523;28;20091;-51
2023/12/29 05:55:02;;;;;;;15.70;12.88;;;;;;;;;;10288146;28;20072;-52
2023/12/29 06:00:03;;;;;;;16.58;11.90;;;;;;;;;;10288186;28;20455;-53
2023/12/29 06:05:09;;;;;;;16.20;11.95;;;;;;;;;;10291030;28;20073;-54
2023/12/29 06:10:09;;;;;;;15.18;11.70;;;;;;;;;;10284233;28;20459;-52
2023/12/29 06:15:10;;;;;;;14.45;11.88;;;;;;;;;;10288479;28;20525;-53
2023/12/29 06:20:11;;;;;;;17.63;11.75;;;;;;;;;;10287221;28;20076;-55
2023/12/29 06:25:10;;;;;;;15.38;12.15;;;;;;;;;;10287758;28;20483;-51
2023/12/29 06:30:11;;;;;;;15.60;11.85;;;;;;;;;;10287422;28;20475;-54
2023/12/29 06:35:10;;;;;;;24.60;22.00;;;;;;;;;;10285542;28;20095;-53
2023/12/29 06:40:09;;;;;;;17.77;15.77;;;;;;;;;;10289500;28;20072;-54
2023/12/29 06:45:09;;;;;;;37.92;29.65;;;;;;;;;;10285576;28;20075;-54
2023/12/29 06:50:12;;;;;;;16.10;13.23;;;;;;;;;;10286016;28;20071;-54
2023/12/29 06:55:11;;;;;;;15.05;12.82;;;;;;;;;;10282512;28;20144;-54
2023/12/29 07:00:10;;;;;;;18.63;12.60;;;;;;;;;;10285929;28;20069;-52
2023/12/29 07:05:09;;;;;;;18.95;14.63;;;;;;;;;;10286463;28;20099;-54
2023/12/29 07:10:08;;;;;;;17.27;12.90;;;;;;;;;;10288567;28;20147;-48
2023/12/29 07:15:07;;;;;;;16.85;14.27;;;;;;;;;;10285793;28;20446;-52
2023/12/29 07:20:06;;;;;;;17.58;13.35;;;;;;;;;;10283440;28;20081;-53
2023/12/29 07:25:06;;;;;;;15.38;12.57;;;;;;;;;;10284361;28;20080;-53
2023/12/29 07:30:05;;;;;;;16.42;12.10;;;;;;;;;;10290106;28;20071;-52
2023/12/29 07:35:05;;;;;;;17.77;13.02;;;;;;;;;;10297979;28;20052;-53
2023/12/29 07:40:03;;;;;;;17.92;12.85;;;;;;;;;;10294035;28;20545;-53
2023/12/29 07:45:04;;;;;;;17.05;11.73;;;;;;;;;;10294932;28;20080;-53
2023/12/29 07:50:02;;;;;;;16.90;12.02;;;;;;;;;;10291030;28;20083;-54
2023/12/29 07:55:00;;;;;;;17.65;15.70;;;;;;;;;;10292856;28;20475;-55
2023/12/29 07:59:59;;;;;;;12.02;10.40;;;;;;;;;;10293481;28;20071;-54
2023/12/29 08:04:58;;;;;;;11.80;10.55;;;;;;;;;;10292093;28;20095;-52
2023/12/29 08:09:57;;;;;;;13.95;11.75;;;;;;;;;;10293927;28;20076;-53
2023/12/29 08:14:56;;;;;;;12.23;11.00;;;;;;;;;;10288011;28;20469;-52
2023/12/29 08:19:54;;;;;;;17.58;10.98;;;;;;;;;;10292693;28;20068;-54
2023/12/29 08:24:54;;;;;;;14.77;11.32;;;;;;;;;;10292104;28;20129;-52
2023/12/29 08:29:53;;;;;;;19.08;15.23;;;;;;;;;;10291847;28;20130;-50
2023/12/29 08:34:52;;;;;;;17.15;11.98;;;;;;;;;;10291283;28;20088;-53
2023/12/29 08:39:50;;;;;;;13.02;10.52;;;;;;;;;;10287208;28;20083;-53
2023/12/29 08:44:50;;;;;;;19.23;12.60;;;;;;;;;;10290974;28;20075;-52
2023/12/29 08:49:48;;;;;;;22.02;13.88;;;;;;;;;;10287573;28;20091;-54
2023/12/29 08:54:47;;;;;;;22.23;13.07;;;;;;;;;;10284474;28;20079;-49
2023/12/29 08:59:46;;;;;;;12.77;10.20;;;;;;;;;;10283822;28;20096;-53
2023/12/29 09:04:45;;;;;;;23.05;17.55;;;;;;;;;;10283530;28;20582;-53
2023/12/29 09:09:43;;;;;;;33.30;21.42;;;;;;;;;;10287022;28;20136;-53
2023/12/29 09:14:42;;;;;;;30.10;18.98;;;;;;;;;;10289406;28;20045;-53
2023/12/29 09:19:40;;;;;;;51.78;32.78;;;;;;;;;;10287859;28;20072;-52
2023/12/29 09:24:41;;;;;;;25.98;18.02;;;;;;;;;;10285241;28;20064;-50
2023/12/29 09:29:40;;;;;;;64.63;41.45;;;;;;;;;;10284067;28;20091;-53
2023/12/29 09:34:38;;;;;;;47.80;32.63;;;;;;;;;;10287195;28;20072;-54
2023/12/29 09:39:36;;;;;;;44.97;33.13;;;;;;;;;;10283019;28;20499;-56
2023/12/29 09:44:37;;;;;;;18.45;14.90;;;;;;;;;;10283310;28;20163;-46
2023/12/29 09:49:38;;;;;;;16.83;12.18;;;;;;;;;;10283116;28;20079;-49
2023/12/29 09:54:37;;;;;;;17.60;12.60;;;;;;;;;;10284846;28;20111;-53
2023/12/29 09:59:37;;;;;;;23.55;16.20;;;;;;;;;;10285808;28;20060;-47
2023/12/29 10:04:36;;;;;;;22.75;16.70;;;;;;;;;;10288851;28;20080;-48
2023/12/29 10:09:35;;;;;;;21.77;13.98;;;;;;;;;;10286157;28;20064;-50
2023/12/29 10:14:38;;;;;;;22.35;14.10;;;;;;;;;;10287649;28;20060;-52
2023/12/29 10:19:38;;;;;;;25.55;13.35;;;;;;;;;;10282180;28;20072;-48
2023/12/29 10:24:37;;;;;;;21.17;14.02;;;;;;;;;;10281692;28;20095;-49
2023/12/29 10:29:37;;;;;;;25.95;14.88;;;;;;;;;;10285242;28;20076;-48
2023/12/29 10:34:35;;;;;;;19.15;14.73;;;;;;;;;;10287768;28;20507;-49
2023/12/29 10:39:34;;;;;;;27.65;19.13;;;;;;;;;;10284934;28;20439;-48
2023/12/29 10:44:32;;;;;;;20.48;13.68;;;;;;;;;;10286026;28;20072;-46
2023/12/29 10:49:32;;;;;;;23.45;16.13;;;;;;;;;;10286064;28;20072;-50
2023/12/29 10:54:31;;;;;;;23.17;15.93;;;;;;;;;;10284358;28;20078;-47
2023/12/29 10:59:29;;;;;;;31.38;17.55;;;;;;;;;;10285696;28;20498;-51
2023/12/29 11:04:28;;;;;;;25.95;17.45;;;;;;;;;;10283816;28;20072;-53
2023/12/29 11:09:29;;;;;;;16.15;12.02;;;;;;;;;;10285356;28;20068;-52
2023/12/29 11:14:28;;;;;;;21.38;12.13;;;;;;;;;;10283567;28;20080;-51
2023/12/29 11:19:27;;;;;;;22.50;15.60;;;;;;;;;;10286744;28;20083;-54
2023/12/29 11:24:26;;;;;;;26.38;16.15;;;;;;;;;;10286659;28;20069;-53
2023/12/29 11:29:36;;;;;;;17.83;12.18;;;;;;;;;;10279707;28;20091;-53
2023/12/29 11:34:36;;;;;;;14.38;12.25;;;;;;;;;;10280324;28;20073;-52
2023/12/29 11:39:39;;;;;;;13.73;9.90;;;;;;;;;;10282769;28;20049;-52
2023/12/29 11:44:39;;;;;;;14.88;11.30;;;;;;;;;;10283066;28;20510;-53
2023/12/29 11:49:52;;;;;;;38.25;20.90;;;;;;;;;;10282061;28;20095;-53
2023/12/29 11:54:50;;;;;;;31.50;16.25;;;;;;;;;;10282664;28;20474;-54
2023/12/29 11:59:51;;;;;;;26.48;17.42;;;;;;;;;;10284944;28;20068;-53
2023/12/29 12:04:50;;;;;;;18.27;11.15;;;;;;;;;;10283307;28;20068;-52
2023/12/29 12:09:49;;;;;;;19.55;14.73;;;;;;;;;;10283433;28;20087;-53
2023/12/29 12:14:53;;;;;;;11.88;8.60;;;;;;;;;;10280989;28;20067;-53
2023/12/29 12:19:51;;;;;;;11.02;9.82;;;;;;;;;;10291257;28;20091;-54
2023/12/29 12:24:50;;;;;;;15.40;10.82;;;;;;;;;;10287536;28;20462;-53
2023/12/29 12:29:50;;;;;;;14.40;10.82;;;;;;;;;;10290749;28;20490;-53
2023/12/29 12:34:49;;;;;;;19.73;13.77;;;;;;;;;;10291074;28;20092;-53
2023/12/29 12:39:48;;;;;;;15.57;11.95;;;;;;;;;;10291249;28;20073;-54
2023/12/29 12:44:51;;;;;;;14.70;10.85;;;;;;;;;;10290088;28;20134;-49
2023/12/29 12:49:51;;;;;;;17.13;12.50;;;;;;;;;;10289562;28;20116;-51
2023/12/29 12:54:49;;;;;;;42.90;27.58;;;;;;;;;;10290868;28;20069;-52
2023/12/29 12:59:48;;;;;;;13.00;8.55;;;;;;;;;;10290146;28;20064;-52
2023/12/29 13:04:47;;;;;;;14.32;10.13;;;;;;;;;;10291288;28;20079;-54
2023/12/29 13:09:48;;;;;;;12.25;9.40;;;;;;;;;;10289120;28;20084;-55
2023/12/29 13:14:47;;;;;;;11.85;7.75;;;;;;;;;;10290098;28;20080;-52
2023/12/29 13:19:45;;;;;;;11.75;9.10;;;;;;;;;;10290201;28;20080;-53
2023/12/29 13:24:44;;;;;;;8.90;8.00;;;;;;;;;;10288135;28;20561;-55
2023/12/29 13:29:45;;;;;;;8.90;7.68;;;;;;;;;;10284632;28;20080;-53
2023/12/29 13:34:51;;;;;;;15.43;8.88;;;;;;;;;;10293560;28;20095;-53
2023/12/29 13:39:53;;;;;;;12.82;10.00;;;;;;;;;;10283864;28;20092;-54
2023/12/29 13:44:53;;;;;;;8.93;6.63;;;;;;;;;;10291137;28;20072;-53
2023/12/29 13:49:52;;;;;;;10.70;8.88;;;;;;;;;;10285042;28;20084;-53
2023/12/29 13:54:51;;;;;;;17.73;11.48;;;;;;;;;;10283445;28;20099;-53
2023/12/29 13:59:49;;;;;;;13.15;10.18;;;;;;;;;;10289054;28;20072;-51
2023/12/29 14:04:49;;;;;;;15.23;11.95;;;;;;;;;;10287605;28;20498;-53
2023/12/29 14:09:47;;;;;;;20.27;16.98;;;;;;;;;;10286730;28;20076;-53
2023/12/29 14:14:46;;;;;;;10.73;9.10;;;;;;;;;;10286520;28;20522;-51
2023/12/29 14:19:44;;;;;;;13.23;10.98;;;;;;;;;;10285883;28;20084;-54
2023/12/29 14:24:44;;;;;;;23.55;15.75;;;;;;;;;;10289548;28;20080;-54
2023/12/29 14:29:44;;;;;;;22.48;16.95;;;;;;;;;;10284085;28;20072;-53
2023/12/29 14:34:46;;;;;;;30.48;24.38;;;;;;;;;;10278854;28;20084;-53
2023/12/29 14:39:49;;;;;;;51.25;33.60;;;;;;;;;;10280782;28;20069;-52
2023/12/29 14:44:48;;;;;;;20.70;18.38;;;;;;;;;;10284424;28;20091;-52
2023/12/29 14:49:46;;;;;;;21.48;18.13;;;;;;;;;;10281673;28;20076;-59
2023/12/29 14:54:44;;;;;;;10.77;9.05;;;;;;;;;;10280096;28;20068;-54
2023/12/29 14:59:44;;;;;;;13.80;8.38;;;;;;;;;;10286791;28;20088;-54
2023/12/29 15:04:42;;;;;;;15.82;14.00;;;;;;;;;;10284135;28;20076;-54
2023/12/29 15:09:41;;;;;;;15.65;12.25;;;;;;;;;;10285386;28;20087;-54
2023/12/29 15:14:39;;;;;;;19.50;10.95;;;;;;;;;;10284101;28;20080;-54
2023/12/29 15:19:39;;;;;;;56.20;29.52;;;;;;;;;;10285850;28;20075;-53
2023/12/29 15:24:37;;;;;;;19.85;13.27;;;;;;;;;;10282465;28;20060;-53
2023/12/29 15:29:35;;;;;;;14.85;11.60;;;;;;;;;;10291322;28;20080;-53
2023/12/29 15:34:33;;;;;;;43.45;37.33;;;;;;;;;;10280322;28;20560;-55
2023/12/29 15:39:33;;;;;;;32.53;29.17;;;;;;;;;;10281234;28;20083;-51
2023/12/29 15:44:31;;;;;;;24.48;21.88;;;;;;;;;;10278187;28;20064;-53
2023/12/29 15:49:30;;;;;;;22.20;19.90;;;;;;;;;;10281903;28;20126;-55
2023/12/29 15:54:29;;;;;;;30.08;26.75;;;;;;;;;;10284951;28;20063;-53
2023/12/29 15:59:28;;;;;;;27.73;24.45;;;;;;;;;;10289608;28;20072;-52
2023/12/29 16:04:27;;;;;;;28.02;25.13;;;;;;;;;;10288281;28;20068;-54
2023/12/29 16:09:26;;;;;;;22.05;17.00;;;;;;;;;;10286499;28;20076;-53
2023/12/29 16:14:24;;;;;;;22.00;18.25;;;;;;;;;;10289860;28;20067;-53
2023/12/29 16:19:24;;;;;;;17.38;15.35;;;;;;;;;;10290297;28;20475;-54
2023/12/29 16:24:22;;;;;;;31.55;22.83;;;;;;;;;;10292816;28;20097;-54
2023/12/29 16:29:21;;;;;;;22.02;17.45;;;;;;;;;;10290762;28;20122;-54
2023/12/29 16:34:19;;;;;;;25.10;22.25;;;;;;;;;;10291547;28;20146;-52
2023/12/29 16:39:19;;;;;;;29.95;26.52;;;;;;;;;;10291167;28;20073;-53
2023/12/29 16:44:17;;;;;;;20.85;17.58;;;;;;;;;;10292392;28;20060;-54
2023/12/29 16:49:15;;;;;;;14.95;12.40;;;;;;;;;;10290778;28;20076;-56
2023/12/29 16:54:14;;;;;;;13.02;10.70;;;;;;;;;;10290947;28;20068;-53
2023/12/29 16:59:13;;;;;;;16.20;12.70;;;;;;;;;;10288795;28;20087;-53
2023/12/29 17:04:12;;;;;;;12.40;10.38;;;;;;;;;;10288541;28;20100;-54
2023/12/29 17:09:13;;;;;;;15.25;12.68;;;;;;;;;;10290465;28;20075;-53
2023/12/29 17:14:12;;;;;;;13.93;10.77;;;;;;;;;;10290166;28;20475;-52
2023/12/29 17:19:12;;;;;;;11.10;9.38;;;;;;;;;;10289650;28;20510;-52
2023/12/29 17:24:10;;;;;;;12.45;9.57;;;;;;;;;;10289180;28;20064;-52
2023/12/29 17:29:08;;;;;;;15.00;10.05;;;;;;;;;;10288463;28;20080;-54
2023/12/29 17:34:06;;;;;;;13.38;8.88;;;;;;;;;;10285610;28;20082;-53
2023/12/29 17:39:06;;;;;;;18.08;9.90;;;;;;;;;;10283444;28;20522;-54
2023/12/29 17:44:04;;;;;;;11.48;8.35;;;;;;;;;;10289010;28;20519;-56
2023/12/29 17:49:03;;;;;;;11.60;9.90;;;;;;;;;;10285828;28;20073;-54
2023/12/29 17:54:07;;;;;;;16.25;12.98;;;;;;;;;;10284131;28;20078;-54
2023/12/29 17:59:06;;;;;;;13.98;11.05;;;;;;;;;;10282930;28;20075;-52
2023/12/29 18:04:05;;;;;;;17.85;13.57;;;;;;;;;;10287801;28;20090;-53
2023/12/29 18:09:05;;;;;;;15.25;12.55;;;;;;;;;;10287202;28;20160;-54
2023/12/29 18:14:05;;;;;;;14.50;11.52;;;;;;;;;;10281622;28;20080;-53
2023/12/29 18:19:03;;;;;;;15.18;11.60;;;;;;;;;;10284969;28;20084;-52
2023/12/29 18:24:02;;;;;;;17.63;13.95;;;;;;;;;;10279689;28;20063;-53
2023/12/29 18:29:00;;;;;;;36.70;32.83;;;;;;;;;;10279971;28;20076;-54
2023/12/29 18:33:59;;;;;;;12.25;8.93;;;;;;;;;;10282177;28;20522;-59
2023/12/29 18:38:58;;;;;;;15.30;9.65;;;;;;;;;;10278483;28;20072;-53
2023/12/29 18:43:56;;;;;;;9.52;8.43;;;;;;;;;;10283115;28;20072;-53
2023/12/29 18:48:54;;;;;;;13.80;8.50;;;;;;;;;;10291335;28;20566;-54
2023/12/29 18:53:54;;;;;;;11.73;9.13;;;;;;;;;;10286889;28;20095;-52
2023/12/29 18:58:52;;;;;;;10.15;8.27;;;;;;;;;;10283479;28;20532;-51
2023/12/29 19:03:51;;;;;;;19.13;11.98;;;;;;;;;;10285472;28;20470;-52
2023/12/29 19:08:49;;;;;;;11.90;8.18;;;;;;;;;;10282266;28;20079;-52
2023/12/29 19:13:49;;;;;;;10.13;8.95;;;;;;;;;;10282976;28;20072;-52
2023/12/29 19:18:47;;;;;;;10.10;9.10;;;;;;;;;;10285104;28;20065;-51
2023/12/29 19:23:45;;;;;;;9.25;8.23;;;;;;;;;;10281606;28;20069;-53
2023/12/29 19:28:44;;;;;;;13.25;8.30;;;;;;;;;;10289700;28;20079;-53
2023/12/29 19:33:43;;;;;;;11.63;8.32;;;;;;;;;;10294374;28;20106;-53
2023/12/29 19:38:45;;;;;;;8.32;7.35;;;;;;;;;;10292723;28;20080;-52
2023/12/29 19:43:43;;;;;;;8.07;6.35;;;;;;;;;;10293730;28;20072;-54
2023/12/29 19:48:42;;;;;;;8.45;6.80;;;;;;;;;;10289431;28;20068;-52
2023/12/29 19:53:43;;;;;;;9.68;7.57;;;;;;;;;;10293643;28;20080;-53
2023/12/29 19:58:42;;;;;;;11.95;8.57;;;;;;;;;;10290696;28;20060;-53
2023/12/29 20:03:40;;;;;;;10.07;7.88;;;;;;;;;;10293824;28;20083;-52
2023/12/29 20:08:38;;;;;;;8.02;6.10;;;;;;;;;;10288401;28;20078;-54
2023/12/29 20:13:38;;;;;;;10.77;7.30;;;;;;;;;;10292031;28;20062;-53
2023/12/29 20:18:36;;;;;;;9.88;7.82;;;;;;;;;;10288389;28;20076;-51
2023/12/29 20:23:35;;;;;;;10.00;6.93;;;;;;;;;;10287383;28;20087;-51
2023/12/29 20:28:34;;;;;;;54.08;35.80;;;;;;;;;;10293327;28;20083;-50
2023/12/29 20:33:33;;;;;;;11.63;8.77;;;;;;;;;;10288963;28;20080;-52
2023/12/29 20:38:33;;;;;;;7.32;6.28;;;;;;;;;;10290890;28;20498;-52
2023/12/29 20:43:31;;;;;;;12.40;7.65;;;;;;;;;;10286175;28;20060;-52
2023/12/29 20:48:30;;;;;;;8.05;6.30;;;;;;;;;;10296642;28;20091;-50
2023/12/29 20:53:29;;;;;;;7.82;6.22;;;;;;;;;;10288355;28;20075;-52
2023/12/29 20:58:28;;;;;;;9.55;6.15;;;;;;;;;;10288192;28;20061;-50
2023/12/29 21:03:28;;;;;;;10.18;6.00;;;;;;;;;;10285576;28;20068;-52
2023/12/29 21:08:26;;;;;;;9.80;6.45;;;;;;;;;;10287707;28;20065;-52
2023/12/29 21:13:26;;;;;;;9.25;7.20;;;;;;;;;;10285026;28;20068;-52
2023/12/29 21:18:24;;;;;;;10.30;8.32;;;;;;;;;;10284952;28;20076;-50
2023/12/29 21:23:23;;;;;;;9.52;7.28;;;;;;;;;;10278514;28;20053;-53
2023/12/29 21:28:21;;;;;;;6.85;6.13;;;;;;;;;;10279010;28;20076;-53
2023/12/29 21:33:21;;;;;;;8.05;6.70;;;;;;;;;;10281847;28;20085;-52
2023/12/29 21:38:19;;;;;;;9.30;6.90;;;;;;;;;;10287003;28;20072;-54
2023/12/29 21:43:17;;;;;;;7.75;6.55;;;;;;;;;;10286730;28;20072;-51
2023/12/29 21:48:17;;;;;;;8.40;6.20;;;;;;;;;;10279578;28;20087;-51
2023/12/29 21:53:17;;;;;;;8.90;6.93;;;;;;;;;;10276722;28;20092;-52
2023/12/29 21:58:15;;;;;;;9.38;6.55;;;;;;;;;;10287225;28;20498;-50
2023/12/29 22:03:13;;;;;;;8.32;6.15;;;;;;;;;;10286761;28;20073;-53
2023/12/29 22:08:12;;;;;;;6.07;5.40;;;;;;;;;;10282593;28;20083;-51
2023/12/29 22:13:11;;;;;;;8.23;6.07;;;;;;;;;;10285648;28;20095;-51
2023/12/29 22:18:10;;;;;;;8.98;7.43;;;;;;;;;;10289973;28;20091;-51
2023/12/29 22:23:08;;;;;;;6.70;5.97;;;;;;;;;;10288764;28;20060;-50
2023/12/29 22:28:07;;;;;;;6.88;5.47;;;;;;;;;;10287591;28;20456;-53
2023/12/29 22:33:07;;;;;;;8.82;7.18;;;;;;;;;;10288003;28;20091;-51
2023/12/29 22:38:05;;;;;;;8.85;6.53;;;;;;;;;;10280181;28;20068;-54
2023/12/29 22:43:04;;;;;;;7.25;6.55;;;;;;;;;;10288210;28;20072;-54
2023/12/29 22:48:02;;;;;;;11.57;7.25;;;;;;;;;;10287497;28;20455;-53
2023/12/29 22:53:02;;;;;;;8.18;6.30;;;;;;;;;;10286709;28;20084;-53
2023/12/29 22:58:01;;;;;;;7.43;6.13;;;;;;;;;;10288629;28;20073;-53
2023/12/29 23:02:59;;;;;;;7.70;6.28;;;;;;;;;;10284858;28;20525;-55
2023/12/29 23:07:58;;;;;;;10.48;6.47;;;;;;;;;;10287790;28;20068;-54
2023/12/29 23:12:58;;;;;;;6.93;5.63;;;;;;;;;;10285673;28;20084;-50
2023/12/29 23:17:57;;;;;;;7.65;5.88;;;;;;;;;;10281951;28;20075;-53
2023/12/29 23:22:55;;;;;;;7.22;6.53;;;;;;;;;;10288174;28;20065;-51
2023/12/29 23:27:53;;;;;;;7.43;6.68;;;;;;;;;;10281180;28;20083;-53
2023/12/29 23:32:53;;;;;;;6.72;5.78;;;;;;;;;;10284271;28;20091;-51
2023/12/29 23:37:51;;;;;;;8.93;5.97;;;;;;;;;;10281645;28;20563;-53
2023/12/29 23:42:50;;;;;;;6.82;5.78;;;;;;;;;;10284953;28;20079;-52
2023/12/29 23:47:48;;;;;;;10.40;6.22;;;;;;;;;;10283791;28;20503;-52
2023/12/29 23:52:48;;;;;;;9.32;6.75;;;;;;;;;;10282203;28;20451;-53
2023/12/29 23:57:47;;;;;;;7.78;6.35;;;;;;;;;;10280557;28;20064;-50
